sensor_id;sensor_type;location;lat;lon;timestamp;P1;durP1;ratioP1;P2;durP2;ratioP2
5931;SDS011;2991;49.368;8.528;2022-08-16T00:00:44;1.80;;;1.70;;
5931;SDS011;2991;49.368;8.528;2022-08-16T00:03:11;1.83;;;1.73;;
5931;SDS011;2991;49.368;8.528;2022-08-16T00:05:42;1.83;;;1.73;;
5931;SDS011;2991;49.368;8.528;2022-08-16T00:08:16;1.98;;;1.88;;
5931;SDS011;2991;49.368;8.528;2022-08-16T00:10:59;4.00;;;1.88;;
5931;SDS011;2991;49.368;8.528;2022-08-16T00:13:29;2.47;;;2.10;;
5931;SDS011;2991;49.368;8.528;2022-08-16T00:15:57;1.67;;;1.58;;
5931;SDS011;2991;49.368;8.528;2022-08-16T00:18:33;1.98;;;1.80;;
5931;SDS011;2991;49.368;8.528;2022-08-16T00:21:06;3.35;;;1.90;;
5931;SDS011;2991;49.368;8.528;2022-08-16T00:23:39;1.83;;;1.75;;
5931;SDS011;2991;49.368;8.528;2022-08-16T00:26:08;1.92;;;1.80;;
5931;SDS011;2991;49.368;8.528;2022-08-16T00:28:35;1.85;;;1.83;;
5931;SDS011;2991;49.368;8.528;2022-08-16T00:31:02;1.88;;;1.77;;
5931;SDS011;2991;49.368;8.528;2022-08-16T00:33:31;2.65;;;2.00;;
5931;SDS011;2991;49.368;8.528;2022-08-16T00:36:08;1.70;;;1.70;;
5931;SDS011;2991;49.368;8.528;2022-08-16T00:38:40;2.63;;;1.75;;
5931;SDS011;2991;49.368;8.528;2022-08-16T00:41:12;2.20;;;2.10;;
5931;SDS011;2991;49.368;8.528;2022-08-16T00:43:50;2.33;;;2.22;;
5931;SDS011;2991;49.368;8.528;2022-08-16T00:46:33;2.13;;;1.92;;
5931;SDS011;2991;49.368;8.528;2022-08-16T00:49:12;2.05;;;1.95;;
5931;SDS011;2991;49.368;8.528;2022-08-16T00:51:57;2.35;;;2.25;;
5931;SDS011;2991;49.368;8.528;2022-08-16T00:54:28;3.00;;;1.90;;
5931;SDS011;2991;49.368;8.528;2022-08-16T00:57:02;2.10;;;2.00;;
5931;SDS011;2991;49.368;8.528;2022-08-16T00:59:54;2.28;;;2.15;;
5931;SDS011;2991;49.368;8.528;2022-08-16T01:02:23;2.22;;;2.03;;
5931;SDS011;2991;49.368;8.528;2022-08-16T01:04:55;6.28;;;2.33;;
5931;SDS011;2991;49.368;8.528;2022-08-16T01:07:24;1.92;;;1.83;;
5931;SDS011;2991;49.368;8.528;2022-08-16T01:09:53;2.20;;;2.10;;
5931;SDS011;2991;49.368;8.528;2022-08-16T01:12:20;1.95;;;1.85;;
5931;SDS011;2991;49.368;8.528;2022-08-16T01:14:53;1.80;;;1.70;;
5931;SDS011;2991;49.368;8.528;2022-08-16T01:17:24;2.20;;;2.10;;
5931;SDS011;2991;49.368;8.528;2022-08-16T01:19:58;2.13;;;2.00;;
5931;SDS011;2991;49.368;8.528;2022-08-16T01:25:44;2.00;;;1.90;;
5931;SDS011;2991;49.368;8.528;2022-08-16T01:28:14;2.40;;;1.90;;
5931;SDS011;2991;49.368;8.528;2022-08-16T01:30:51;2.58;;;2.40;;
5931;SDS011;2991;49.368;8.528;2022-08-16T01:33:26;2.00;;;1.95;;
5931;SDS011;2991;49.368;8.528;2022-08-16T01:35:56;2.28;;;2.17;;
5931;SDS011;2991;49.368;8.528;2022-08-16T01:38:30;2.17;;;2.08;;
5931;SDS011;2991;49.368;8.528;2022-08-16T01:41:01;2.23;;;2.13;;
5931;SDS011;2991;49.368;8.528;2022-08-16T01:43:34;1.80;;;1.77;;
5931;SDS011;2991;49.368;8.528;2022-08-16T01:46:18;2.30;;;1.90;;
5931;SDS011;2991;49.368;8.528;2022-08-16T01:48:55;1.97;;;1.77;;
5931;SDS011;2991;49.368;8.528;2022-08-16T01:51:27;2.20;;;2.10;;
5931;SDS011;2991;49.368;8.528;2022-08-16T01:53:54;2.25;;;2.08;;
5931;SDS011;2991;49.368;8.528;2022-08-16T01:56:20;1.57;;;1.47;;
5931;SDS011;2991;49.368;8.528;2022-08-16T01:58:46;1.87;;;1.80;;
5931;SDS011;2991;49.368;8.528;2022-08-16T02:01:12;2.33;;;2.22;;
5931;SDS011;2991;49.368;8.528;2022-08-16T02:03:38;2.22;;;2.13;;
5931;SDS011;2991;49.368;8.528;2022-08-16T02:06:03;2.90;;;2.63;;
5931;SDS011;2991;49.368;8.528;2022-08-16T02:08:30;1.98;;;1.95;;
5931;SDS011;2991;49.368;8.528;2022-08-16T02:10:55;2.10;;;2.00;;
5931;SDS011;2991;49.368;8.528;2022-08-16T02:13:23;2.20;;;2.10;;
5931;SDS011;2991;49.368;8.528;2022-08-16T02:15:49;2.10;;;2.00;;
5931;SDS011;2991;49.368;8.528;2022-08-16T02:18:14;2.08;;;1.98;;
5931;SDS011;2991;49.368;8.528;2022-08-16T02:20:41;2.58;;;2.38;;
5931;SDS011;2991;49.368;8.528;2022-08-16T02:23:11;2.03;;;1.92;;
5931;SDS011;2991;49.368;8.528;2022-08-16T02:25:36;2.08;;;1.98;;
5931;SDS011;2991;49.368;8.528;2022-08-16T02:28:02;3.65;;;2.22;;
5931;SDS011;2991;49.368;8.528;2022-08-16T02:30:29;3.00;;;2.40;;
5931;SDS011;2991;49.368;8.528;2022-08-16T02:32:55;1.80;;;1.70;;
5931;SDS011;2991;49.368;8.528;2022-08-16T02:35:22;2.20;;;2.10;;
5931;SDS011;2991;49.368;8.528;2022-08-16T02:37:48;2.20;;;2.00;;
5931;SDS011;2991;49.368;8.528;2022-08-16T02:40:16;2.30;;;2.20;;
5931;SDS011;2991;49.368;8.528;2022-08-16T02:42:45;2.00;;;1.90;;
5931;SDS011;2991;49.368;8.528;2022-08-16T02:45:12;2.47;;;2.25;;
5931;SDS011;2991;49.368;8.528;2022-08-16T02:47:38;2.45;;;2.30;;
5931;SDS011;2991;49.368;8.528;2022-08-16T02:50:04;2.30;;;2.20;;
5931;SDS011;2991;49.368;8.528;2022-08-16T02:52:31;2.87;;;2.67;;
5931;SDS011;2991;49.368;8.528;2022-08-16T02:54:57;2.03;;;1.92;;
5931;SDS011;2991;49.368;8.528;2022-08-16T02:57:22;2.35;;;2.25;;
5931;SDS011;2991;49.368;8.528;2022-08-16T02:59:48;2.17;;;2.07;;
5931;SDS011;2991;49.368;8.528;2022-08-16T03:02:14;2.43;;;2.33;;
5931;SDS011;2991;49.368;8.528;2022-08-16T03:04:40;1.90;;;1.80;;
5931;SDS011;2991;49.368;8.528;2022-08-16T03:07:06;2.47;;;2.33;;
5931;SDS011;2991;49.368;8.528;2022-08-16T03:09:33;2.58;;;2.47;;
5931;SDS011;2991;49.368;8.528;2022-08-16T03:11:59;2.28;;;2.13;;
5931;SDS011;2991;49.368;8.528;2022-08-16T03:14:25;2.40;;;2.30;;
5931;SDS011;2991;49.368;8.528;2022-08-16T03:16:52;2.60;;;1.75;;
5931;SDS011;2991;49.368;8.528;2022-08-16T03:19:18;2.78;;;2.53;;
5931;SDS011;2991;49.368;8.528;2022-08-16T03:21:44;2.30;;;2.20;;
5931;SDS011;2991;49.368;8.528;2022-08-16T03:24:10;2.88;;;2.30;;
5931;SDS011;2991;49.368;8.528;2022-08-16T03:26:36;2.27;;;2.17;;
5931;SDS011;2991;49.368;8.528;2022-08-16T03:29:02;2.27;;;2.17;;
5931;SDS011;2991;49.368;8.528;2022-08-16T03:31:28;2.23;;;2.03;;
5931;SDS011;2991;49.368;8.528;2022-08-16T03:33:54;2.58;;;2.47;;
5931;SDS011;2991;49.368;8.528;2022-08-16T03:36:19;1.92;;;1.83;;
5931;SDS011;2991;49.368;8.528;2022-08-16T03:38:45;2.00;;;1.90;;
5931;SDS011;2991;49.368;8.528;2022-08-16T03:41:10;2.03;;;1.93;;
5931;SDS011;2991;49.368;8.528;2022-08-16T03:43:36;2.60;;;2.40;;
5931;SDS011;2991;49.368;8.528;2022-08-16T03:46:03;2.63;;;2.42;;
5931;SDS011;2991;49.368;8.528;2022-08-16T03:48:36;2.00;;;1.90;;
5931;SDS011;2991;49.368;8.528;2022-08-16T03:51:04;1.80;;;1.80;;
5931;SDS011;2991;49.368;8.528;2022-08-16T03:53:32;2.50;;;2.30;;
5931;SDS011;2991;49.368;8.528;2022-08-16T03:55:57;2.20;;;2.10;;
5931;SDS011;2991;49.368;8.528;2022-08-16T03:58:23;2.17;;;2.00;;
5931;SDS011;2991;49.368;8.528;2022-08-16T04:00:48;2.27;;;2.17;;
5931;SDS011;2991;49.368;8.528;2022-08-16T04:03:14;2.75;;;2.47;;
5931;SDS011;2991;49.368;8.528;2022-08-16T04:05:42;2.23;;;2.13;;
5931;SDS011;2991;49.368;8.528;2022-08-16T04:08:10;2.50;;;2.40;;
5931;SDS011;2991;49.368;8.528;2022-08-16T04:10:37;2.30;;;2.20;;
5931;SDS011;2991;49.368;8.528;2022-08-16T04:13:03;2.30;;;2.20;;
5931;SDS011;2991;49.368;8.528;2022-08-16T04:15:28;2.70;;;2.53;;
5931;SDS011;2991;49.368;8.528;2022-08-16T04:17:54;2.10;;;2.00;;
5931;SDS011;2991;49.368;8.528;2022-08-16T04:20:22;2.80;;;2.60;;
5931;SDS011;2991;49.368;8.528;2022-08-16T04:22:49;2.80;;;2.70;;
5931;SDS011;2991;49.368;8.528;2022-08-16T04:25:15;2.40;;;2.30;;
5931;SDS011;2991;49.368;8.528;2022-08-16T04:27:41;2.80;;;2.55;;
5931;SDS011;2991;49.368;8.528;2022-08-16T04:30:08;2.28;;;2.17;;
5931;SDS011;2991;49.368;8.528;2022-08-16T04:32:37;2.50;;;2.40;;
5931;SDS011;2991;49.368;8.528;2022-08-16T04:35:04;2.70;;;2.60;;
5931;SDS011;2991;49.368;8.528;2022-08-16T04:37:32;2.00;;;1.90;;
5931;SDS011;2991;49.368;8.528;2022-08-16T04:39:57;2.47;;;2.27;;
5931;SDS011;2991;49.368;8.528;2022-08-16T04:42:23;2.60;;;2.40;;
5931;SDS011;2991;49.368;8.528;2022-08-16T04:44:48;2.83;;;2.60;;
5931;SDS011;2991;49.368;8.528;2022-08-16T04:47:14;2.50;;;2.40;;
5931;SDS011;2991;49.368;8.528;2022-08-16T04:49:40;2.77;;;2.63;;
5931;SDS011;2991;49.368;8.528;2022-08-16T04:52:06;2.60;;;2.40;;
5931;SDS011;2991;49.368;8.528;2022-08-16T04:54:31;2.83;;;2.50;;
5931;SDS011;2991;49.368;8.528;2022-08-16T04:56:57;2.80;;;2.60;;
5931;SDS011;2991;49.368;8.528;2022-08-16T04:59:22;2.30;;;2.20;;
5931;SDS011;2991;49.368;8.528;2022-08-16T05:01:48;2.70;;;2.50;;
5931;SDS011;2991;49.368;8.528;2022-08-16T05:04:14;2.23;;;2.13;;
5931;SDS011;2991;49.368;8.528;2022-08-16T05:06:39;2.67;;;2.20;;
5931;SDS011;2991;49.368;8.528;2022-08-16T05:09:05;2.50;;;2.40;;
5931;SDS011;2991;49.368;8.528;2022-08-16T05:11:31;2.40;;;2.30;;
5931;SDS011;2991;49.368;8.528;2022-08-16T05:13:57;2.60;;;2.50;;
5931;SDS011;2991;49.368;8.528;2022-08-16T05:16:27;2.87;;;2.67;;
5931;SDS011;2991;49.368;8.528;2022-08-16T05:18:54;2.60;;;2.50;;
5931;SDS011;2991;49.368;8.528;2022-08-16T05:21:21;2.70;;;2.60;;
5931;SDS011;2991;49.368;8.528;2022-08-16T05:23:49;2.60;;;2.50;;
5931;SDS011;2991;49.368;8.528;2022-08-16T05:26:16;2.57;;;2.47;;
5931;SDS011;2991;49.368;8.528;2022-08-16T05:28:42;2.70;;;2.50;;
5931;SDS011;2991;49.368;8.528;2022-08-16T05:31:07;2.30;;;2.20;;
5931;SDS011;2991;49.368;8.528;2022-08-16T05:33:33;2.20;;;2.10;;
5931;SDS011;2991;49.368;8.528;2022-08-16T05:35:58;2.73;;;2.53;;
5931;SDS011;2991;49.368;8.528;2022-08-16T05:38:24;2.80;;;2.43;;
5931;SDS011;2991;49.368;8.528;2022-08-16T05:40:55;2.87;;;2.60;;
5931;SDS011;2991;49.368;8.528;2022-08-16T05:43:22;2.70;;;2.50;;
5931;SDS011;2991;49.368;8.528;2022-08-16T05:45:47;2.30;;;2.20;;
5931;SDS011;2991;49.368;8.528;2022-08-16T05:48:14;3.20;;;3.00;;
5931;SDS011;2991;49.368;8.528;2022-08-16T05:50:40;2.93;;;2.73;;
5931;SDS011;2991;49.368;8.528;2022-08-16T05:53:05;3.10;;;2.90;;
5931;SDS011;2991;49.368;8.528;2022-08-16T05:55:31;2.50;;;2.40;;
5931;SDS011;2991;49.368;8.528;2022-08-16T05:57:57;2.50;;;2.40;;
5931;SDS011;2991;49.368;8.528;2022-08-16T06:00:22;3.17;;;2.77;;
5931;SDS011;2991;49.368;8.528;2022-08-16T06:02:49;3.83;;;2.90;;
5931;SDS011;2991;49.368;8.528;2022-08-16T06:05:15;2.70;;;2.60;;
5931;SDS011;2991;49.368;8.528;2022-08-16T06:07:41;2.67;;;2.57;;
5931;SDS011;2991;49.368;8.528;2022-08-16T06:10:07;2.83;;;2.63;;
5931;SDS011;2991;49.368;8.528;2022-08-16T06:12:33;2.80;;;2.70;;
5931;SDS011;2991;49.368;8.528;2022-08-16T06:15:00;2.43;;;2.33;;
5931;SDS011;2991;49.368;8.528;2022-08-16T06:17:29;2.60;;;2.40;;
5931;SDS011;2991;49.368;8.528;2022-08-16T06:19:55;2.80;;;2.60;;
5931;SDS011;2991;49.368;8.528;2022-08-16T06:22:20;2.87;;;2.67;;
5931;SDS011;2991;49.368;8.528;2022-08-16T06:24:46;2.83;;;2.30;;
5931;SDS011;2991;49.368;8.528;2022-08-16T06:27:12;2.67;;;2.47;;
5931;SDS011;2991;49.368;8.528;2022-08-16T06:29:38;2.90;;;2.80;;
5931;SDS011;2991;49.368;8.528;2022-08-16T06:32:03;2.73;;;2.53;;
5931;SDS011;2991;49.368;8.528;2022-08-16T06:34:30;2.40;;;2.15;;
5931;SDS011;2991;49.368;8.528;2022-08-16T06:36:56;2.77;;;2.57;;
5931;SDS011;2991;49.368;8.528;2022-08-16T06:39:21;2.53;;;2.43;;
5931;SDS011;2991;49.368;8.528;2022-08-16T06:41:47;3.10;;;2.80;;
5931;SDS011;2991;49.368;8.528;2022-08-16T06:44:12;2.70;;;2.50;;
5931;SDS011;2991;49.368;8.528;2022-08-16T06:46:38;3.27;;;3.03;;
5931;SDS011;2991;49.368;8.528;2022-08-16T06:49:05;3.50;;;2.70;;
5931;SDS011;2991;49.368;8.528;2022-08-16T06:51:33;2.80;;;2.60;;
5931;SDS011;2991;49.368;8.528;2022-08-16T06:54:00;2.57;;;2.47;;
5931;SDS011;2991;49.368;8.528;2022-08-16T06:56:26;2.70;;;2.50;;
5931;SDS011;2991;49.368;8.528;2022-08-16T06:58:52;3.00;;;2.80;;
5931;SDS011;2991;49.368;8.528;2022-08-16T07:01:19;2.50;;;2.40;;
5931;SDS011;2991;49.368;8.528;2022-08-16T07:03:46;3.10;;;2.90;;
5931;SDS011;2991;49.368;8.528;2022-08-16T07:06:12;2.70;;;2.60;;
5931;SDS011;2991;49.368;8.528;2022-08-16T07:08:38;3.00;;;2.60;;
5931;SDS011;2991;49.368;8.528;2022-08-16T07:11:06;3.07;;;2.87;;
5931;SDS011;2991;49.368;8.528;2022-08-16T07:13:33;2.97;;;2.77;;
5931;SDS011;2991;49.368;8.528;2022-08-16T07:15:59;4.03;;;2.80;;
5931;SDS011;2991;49.368;8.528;2022-08-16T07:18:25;2.60;;;2.47;;
5931;SDS011;2991;49.368;8.528;2022-08-16T07:20:51;3.13;;;2.93;;
5931;SDS011;2991;49.368;8.528;2022-08-16T07:23:17;2.90;;;2.70;;
5931;SDS011;2991;49.368;8.528;2022-08-16T07:25:44;2.93;;;2.73;;
5931;SDS011;2991;49.368;8.528;2022-08-16T07:28:11;3.07;;;2.80;;
5931;SDS011;2991;49.368;8.528;2022-08-16T07:30:38;2.67;;;2.50;;
5931;SDS011;2991;49.368;8.528;2022-08-16T07:33:05;2.93;;;2.73;;
5931;SDS011;2991;49.368;8.528;2022-08-16T07:35:31;2.80;;;2.60;;
5931;SDS011;2991;49.368;8.528;2022-08-16T07:37:57;3.37;;;3.07;;
5931;SDS011;2991;49.368;8.528;2022-08-16T07:40:22;3.17;;;2.87;;
5931;SDS011;2991;49.368;8.528;2022-08-16T07:42:49;2.80;;;2.60;;
5931;SDS011;2991;49.368;8.528;2022-08-16T07:45:15;7.03;;;2.83;;
5931;SDS011;2991;49.368;8.528;2022-08-16T07:47:41;6.63;;;3.17;;
5931;SDS011;2991;49.368;8.528;2022-08-16T07:50:09;3.50;;;3.30;;
5931;SDS011;2991;49.368;8.528;2022-08-16T07:52:35;2.97;;;2.77;;
5931;SDS011;2991;49.368;8.528;2022-08-16T07:55:01;3.55;;;2.90;;
5931;SDS011;2991;49.368;8.528;2022-08-16T07:57:27;2.83;;;2.60;;
5931;SDS011;2991;49.368;8.528;2022-08-16T07:59:53;3.07;;;2.87;;
5931;SDS011;2991;49.368;8.528;2022-08-16T08:02:18;3.43;;;3.23;;
5931;SDS011;2991;49.368;8.528;2022-08-16T08:04:44;5.73;;;3.47;;
5931;SDS011;2991;49.368;8.528;2022-08-16T08:07:10;7.78;;;3.85;;
5931;SDS011;2991;49.368;8.528;2022-08-16T08:09:36;4.03;;;3.65;;
5931;SDS011;2991;49.368;8.528;2022-08-16T08:12:05;6.20;;;3.77;;
5931;SDS011;2991;49.368;8.528;2022-08-16T08:14:31;5.68;;;3.38;;
5931;SDS011;2991;49.368;8.528;2022-08-16T08:16:57;3.80;;;3.40;;
5931;SDS011;2991;49.368;8.528;2022-08-16T08:19:24;9.85;;;3.25;;
5931;SDS011;2991;49.368;8.528;2022-08-16T08:21:50;5.13;;;3.67;;
5931;SDS011;2991;49.368;8.528;2022-08-16T08:24:17;3.60;;;3.30;;
5931;SDS011;2991;49.368;8.528;2022-08-16T08:26:44;3.00;;;2.80;;
5931;SDS011;2991;49.368;8.528;2022-08-16T08:29:09;3.33;;;3.00;;
5931;SDS011;2991;49.368;8.528;2022-08-16T08:31:35;3.40;;;3.10;;
5931;SDS011;2991;49.368;8.528;2022-08-16T08:34:04;3.27;;;3.07;;
5931;SDS011;2991;49.368;8.528;2022-08-16T08:36:31;3.27;;;2.97;;
5931;SDS011;2991;49.368;8.528;2022-08-16T08:38:58;3.33;;;3.03;;
5931;SDS011;2991;49.368;8.528;2022-08-16T08:41:27;3.45;;;3.25;;
5931;SDS011;2991;49.368;8.528;2022-08-16T08:43:53;3.20;;;2.93;;
5931;SDS011;2991;49.368;8.528;2022-08-16T08:46:21;4.88;;;3.25;;
5931;SDS011;2991;49.368;8.528;2022-08-16T08:48:49;4.47;;;3.53;;
5931;SDS011;2991;49.368;8.528;2022-08-16T08:51:16;3.45;;;3.25;;
5931;SDS011;2991;49.368;8.528;2022-08-16T08:53:43;3.22;;;3.03;;
5931;SDS011;2991;49.368;8.528;2022-08-16T08:56:10;3.37;;;3.17;;
5931;SDS011;2991;49.368;8.528;2022-08-16T08:58:36;3.40;;;3.10;;
5931;SDS011;2991;49.368;8.528;2022-08-16T09:01:05;3.25;;;3.05;;
5931;SDS011;2991;49.368;8.528;2022-08-16T09:03:33;3.30;;;3.10;;
5931;SDS011;2991;49.368;8.528;2022-08-16T09:06:00;3.80;;;3.33;;
5931;SDS011;2991;49.368;8.528;2022-08-16T09:08:29;3.63;;;3.33;;
5931;SDS011;2991;49.368;8.528;2022-08-16T09:10:56;3.50;;;3.30;;
5931;SDS011;2991;49.368;8.528;2022-08-16T09:13:23;3.00;;;2.90;;
5931;SDS011;2991;49.368;8.528;2022-08-16T09:15:51;3.28;;;3.08;;
5931;SDS011;2991;49.368;8.528;2022-08-16T09:18:19;4.07;;;3.67;;
5931;SDS011;2991;49.368;8.528;2022-08-16T09:20:47;3.17;;;2.97;;
5931;SDS011;2991;49.368;8.528;2022-08-16T09:23:16;3.30;;;3.05;;
5931;SDS011;2991;49.368;8.528;2022-08-16T09:25:45;4.13;;;3.80;;
5931;SDS011;2991;49.368;8.528;2022-08-16T09:28:14;3.38;;;3.17;;
5931;SDS011;2991;49.368;8.528;2022-08-16T09:30:41;3.25;;;3.05;;
5931;SDS011;2991;49.368;8.528;2022-08-16T09:33:07;3.53;;;3.28;;
5931;SDS011;2991;49.368;8.528;2022-08-16T09:35:34;3.50;;;3.30;;
5931;SDS011;2991;49.368;8.528;2022-08-16T09:38:11;3.20;;;3.00;;
5931;SDS011;2991;49.368;8.528;2022-08-16T09:40:40;3.72;;;3.42;;
5931;SDS011;2991;49.368;8.528;2022-08-16T09:43:15;3.72;;;3.53;;
5931;SDS011;2991;49.368;8.528;2022-08-16T09:45:43;3.40;;;3.20;;
5931;SDS011;2991;49.368;8.528;2022-08-16T09:48:12;3.05;;;2.92;;
5931;SDS011;2991;49.368;8.528;2022-08-16T09:50:39;3.80;;;3.50;;
5931;SDS011;2991;49.368;8.528;2022-08-16T09:53:09;4.75;;;3.45;;
5931;SDS011;2991;49.368;8.528;2022-08-16T09:55:40;3.67;;;3.47;;
5931;SDS011;2991;49.368;8.528;2022-08-16T09:58:10;3.10;;;3.00;;
5931;SDS011;2991;49.368;8.528;2022-08-16T10:00:37;3.22;;;2.92;;
5931;SDS011;2991;49.368;8.528;2022-08-16T10:03:02;3.63;;;3.40;;
5931;SDS011;2991;49.368;8.528;2022-08-16T10:05:29;3.30;;;3.10;;
5931;SDS011;2991;49.368;8.528;2022-08-16T10:07:56;3.27;;;3.07;;
5931;SDS011;2991;49.368;8.528;2022-08-16T10:10:22;3.47;;;3.17;;
5931;SDS011;2991;49.368;8.528;2022-08-16T10:12:48;3.40;;;3.20;;
5931;SDS011;2991;49.368;8.528;2022-08-16T10:15:33;3.63;;;3.33;;
5931;SDS011;2991;49.368;8.528;2022-08-16T10:18:00;3.17;;;3.08;;
5931;SDS011;2991;49.368;8.528;2022-08-16T10:20:26;3.13;;;2.92;;
5931;SDS011;2991;49.368;8.528;2022-08-16T10:22:53;3.65;;;3.45;;
5931;SDS011;2991;49.368;8.528;2022-08-16T10:25:19;3.55;;;3.35;;
5931;SDS011;2991;49.368;8.528;2022-08-16T10:27:45;3.45;;;3.25;;
5931;SDS011;2991;49.368;8.528;2022-08-16T10:30:12;4.78;;;3.30;;
5931;SDS011;2991;49.368;8.528;2022-08-16T10:32:38;4.05;;;3.75;;
5931;SDS011;2991;49.368;8.528;2022-08-16T10:35:04;3.67;;;3.47;;
5931;SDS011;2991;49.368;8.528;2022-08-16T10:37:30;3.10;;;2.90;;
5931;SDS011;2991;49.368;8.528;2022-08-16T10:39:56;3.55;;;3.35;;
5931;SDS011;2991;49.368;8.528;2022-08-16T10:42:21;3.40;;;3.15;;
5931;SDS011;2991;49.368;8.528;2022-08-16T10:44:51;3.00;;;2.80;;
5931;SDS011;2991;49.368;8.528;2022-08-16T10:47:33;3.58;;;3.35;;
5931;SDS011;2991;49.368;8.528;2022-08-16T10:50:10;4.75;;;3.58;;
5931;SDS011;2991;49.368;8.528;2022-08-16T10:52:37;4.35;;;3.60;;
5931;SDS011;2991;49.368;8.528;2022-08-16T10:55:07;3.88;;;3.58;;
5931;SDS011;2991;49.368;8.528;2022-08-16T10:57:53;3.05;;;2.90;;
5931;SDS011;2991;49.368;8.528;2022-08-16T11:00:24;3.40;;;3.20;;
5931;SDS011;2991;49.368;8.528;2022-08-16T11:03:09;3.20;;;3.03;;
5931;SDS011;2991;49.368;8.528;2022-08-16T11:06:16;3.70;;;3.40;;
5931;SDS011;2991;49.368;8.528;2022-08-16T11:09:06;3.47;;;3.28;;
5931;SDS011;2991;49.368;8.528;2022-08-16T11:11:32;3.53;;;3.33;;
5931;SDS011;2991;49.368;8.528;2022-08-16T11:13:58;3.70;;;3.50;;
5931;SDS011;2991;49.368;8.528;2022-08-16T11:16:23;3.10;;;3.00;;
5931;SDS011;2991;49.368;8.528;2022-08-16T11:18:49;3.13;;;3.03;;
5931;SDS011;2991;49.368;8.528;2022-08-16T11:21:15;3.17;;;2.97;;
5931;SDS011;2991;49.368;8.528;2022-08-16T11:23:40;3.30;;;3.10;;
5931;SDS011;2991;49.368;8.528;2022-08-16T11:26:06;2.78;;;2.60;;
5931;SDS011;2991;49.368;8.528;2022-08-16T11:28:32;3.13;;;2.92;;
5931;SDS011;2991;49.368;8.528;2022-08-16T11:30:59;4.03;;;3.72;;
5931;SDS011;2991;49.368;8.528;2022-08-16T11:33:25;3.58;;;3.35;;
5931;SDS011;2991;49.368;8.528;2022-08-16T11:35:51;3.30;;;3.10;;
5931;SDS011;2991;49.368;8.528;2022-08-16T11:38:18;3.78;;;3.47;;
5931;SDS011;2991;49.368;8.528;2022-08-16T11:40:46;3.50;;;3.30;;
5931;SDS011;2991;49.368;8.528;2022-08-16T11:43:16;3.40;;;3.20;;
5931;SDS011;2991;49.368;8.528;2022-08-16T11:45:44;3.20;;;3.10;;
5931;SDS011;2991;49.368;8.528;2022-08-16T11:48:11;2.80;;;2.65;;
5931;SDS011;2991;49.368;8.528;2022-08-16T11:50:38;3.67;;;3.38;;
5931;SDS011;2991;49.368;8.528;2022-08-16T11:53:05;3.63;;;3.33;;
5931;SDS011;2991;49.368;8.528;2022-08-16T11:55:30;3.22;;;3.03;;
5931;SDS011;2991;49.368;8.528;2022-08-16T11:57:56;2.92;;;2.83;;
5931;SDS011;2991;49.368;8.528;2022-08-16T12:00:24;3.30;;;3.10;;
5931;SDS011;2991;49.368;8.528;2022-08-16T12:02:49;2.80;;;2.70;;
5931;SDS011;2991;49.368;8.528;2022-08-16T12:05:15;2.83;;;2.72;;
5931;SDS011;2991;49.368;8.528;2022-08-16T12:07:41;3.10;;;3.00;;
5931;SDS011;2991;49.368;8.528;2022-08-16T12:10:09;3.53;;;2.90;;
5931;SDS011;2991;49.368;8.528;2022-08-16T12:12:38;3.08;;;2.97;;
5931;SDS011;2991;49.368;8.528;2022-08-16T12:15:05;3.22;;;3.13;;
5931;SDS011;2991;49.368;8.528;2022-08-16T12:17:31;3.28;;;3.08;;
5931;SDS011;2991;49.368;8.528;2022-08-16T12:19:58;3.22;;;3.08;;
5931;SDS011;2991;49.368;8.528;2022-08-16T12:22:25;3.25;;;3.05;;
5931;SDS011;2991;49.368;8.528;2022-08-16T12:24:51;3.90;;;3.60;;
5931;SDS011;2991;49.368;8.528;2022-08-16T12:27:17;3.17;;;3.08;;
5931;SDS011;2991;49.368;8.528;2022-08-16T12:29:45;3.20;;;3.00;;
5931;SDS011;2991;49.368;8.528;2022-08-16T12:32:11;3.60;;;3.30;;
5931;SDS011;2991;49.368;8.528;2022-08-16T12:34:36;2.90;;;2.70;;
5931;SDS011;2991;49.368;8.528;2022-08-16T12:37:02;3.45;;;3.33;;
5931;SDS011;2991;49.368;8.528;2022-08-16T12:39:29;2.55;;;2.45;;
5931;SDS011;2991;49.368;8.528;2022-08-16T12:41:55;3.40;;;3.20;;
5931;SDS011;2991;49.368;8.528;2022-08-16T12:44:21;3.20;;;3.00;;
5931;SDS011;2991;49.368;8.528;2022-08-16T12:46:49;3.00;;;2.80;;
5931;SDS011;2991;49.368;8.528;2022-08-16T12:49:35;2.97;;;2.88;;
5931;SDS011;2991;49.368;8.528;2022-08-16T12:52:00;2.83;;;2.72;;
5931;SDS011;2991;49.368;8.528;2022-08-16T12:54:26;3.17;;;3.03;;
5931;SDS011;2991;49.368;8.528;2022-08-16T12:56:52;3.33;;;3.20;;
5931;SDS011;2991;49.368;8.528;2022-08-16T12:59:18;3.10;;;2.90;;
5931;SDS011;2991;49.368;8.528;2022-08-16T13:01:47;3.25;;;2.97;;
5931;SDS011;2991;49.368;8.528;2022-08-16T13:04:12;2.83;;;2.72;;
5931;SDS011;2991;49.368;8.528;2022-08-16T13:06:39;3.58;;;3.38;;
5931;SDS011;2991;49.368;8.528;2022-08-16T13:09:06;4.10;;;3.08;;
5931;SDS011;2991;49.368;8.528;2022-08-16T13:11:47;2.70;;;2.60;;
5931;SDS011;2991;49.368;8.528;2022-08-16T13:14:25;2.97;;;2.78;;
5931;SDS011;2991;49.368;8.528;2022-08-16T13:16:55;3.20;;;3.00;;
5931;SDS011;2991;49.368;8.528;2022-08-16T13:19:22;3.35;;;3.17;;
5931;SDS011;2991;49.368;8.528;2022-08-16T13:21:51;3.15;;;2.95;;
5931;SDS011;2991;49.368;8.528;2022-08-16T13:24:20;2.90;;;2.80;;
5931;SDS011;2991;49.368;8.528;2022-08-16T13:26:47;4.10;;;3.80;;
5931;SDS011;2991;49.368;8.528;2022-08-16T13:29:15;3.42;;;3.28;;
5931;SDS011;2991;49.368;8.528;2022-08-16T13:31:42;3.47;;;3.17;;
5931;SDS011;2991;49.368;8.528;2022-08-16T13:34:08;3.00;;;2.90;;
5931;SDS011;2991;49.368;8.528;2022-08-16T13:36:35;2.90;;;2.80;;
5931;SDS011;2991;49.368;8.528;2022-08-16T13:39:05;2.97;;;2.88;;
5931;SDS011;2991;49.368;8.528;2022-08-16T13:41:34;2.97;;;2.88;;
5931;SDS011;2991;49.368;8.528;2022-08-16T13:44:04;3.28;;;3.03;;
5931;SDS011;2991;49.368;8.528;2022-08-16T13:46:34;2.97;;;2.78;;
5931;SDS011;2991;49.368;8.528;2022-08-16T13:49:01;3.17;;;3.05;;
5931;SDS011;2991;49.368;8.528;2022-08-16T13:51:29;3.10;;;2.90;;
5931;SDS011;2991;49.368;8.528;2022-08-16T13:53:58;2.80;;;2.70;;
5931;SDS011;2991;49.368;8.528;2022-08-16T13:59:02;3.15;;;2.95;;
5931;SDS011;2991;49.368;8.528;2022-08-16T14:01:28;3.28;;;3.17;;
5931;SDS011;2991;49.368;8.528;2022-08-16T14:03:54;3.22;;;3.03;;
5931;SDS011;2991;49.368;8.528;2022-08-16T14:06:20;3.38;;;3.17;;
5931;SDS011;2991;49.368;8.528;2022-08-16T14:08:46;3.38;;;3.17;;
5931;SDS011;2991;49.368;8.528;2022-08-16T14:11:12;3.35;;;3.08;;
5931;SDS011;2991;49.368;8.528;2022-08-16T14:13:39;2.70;;;2.60;;
5931;SDS011;2991;49.368;8.528;2022-08-16T14:16:06;2.53;;;2.42;;
5931;SDS011;2991;49.368;8.528;2022-08-16T14:18:32;3.40;;;3.20;;
5931;SDS011;2991;49.368;8.528;2022-08-16T14:20:58;2.75;;;2.60;;
5931;SDS011;2991;49.368;8.528;2022-08-16T14:23:24;2.90;;;2.80;;
5931;SDS011;2991;49.368;8.528;2022-08-16T14:25:50;2.97;;;2.88;;
5931;SDS011;2991;49.368;8.528;2022-08-16T14:28:16;3.90;;;3.58;;
5931;SDS011;2991;49.368;8.528;2022-08-16T14:30:42;3.53;;;3.33;;
5931;SDS011;2991;49.368;8.528;2022-08-16T14:33:08;3.50;;;3.20;;
5931;SDS011;2991;49.368;8.528;2022-08-16T14:35:34;2.90;;;2.80;;
5931;SDS011;2991;49.368;8.528;2022-08-16T14:37:59;3.08;;;2.97;;
5931;SDS011;2991;49.368;8.528;2022-08-16T14:40:25;3.60;;;3.40;;
5931;SDS011;2991;49.368;8.528;2022-08-16T14:42:51;4.00;;;3.67;;
5931;SDS011;2991;49.368;8.528;2022-08-16T14:45:18;3.30;;;2.97;;
5931;SDS011;2991;49.368;8.528;2022-08-16T14:47:46;3.60;;;3.40;;
5931;SDS011;2991;49.368;8.528;2022-08-16T14:50:13;3.03;;;2.92;;
5931;SDS011;2991;49.368;8.528;2022-08-16T14:52:44;3.30;;;3.10;;
5931;SDS011;2991;49.368;8.528;2022-08-16T14:55:13;3.60;;;3.30;;
5931;SDS011;2991;49.368;8.528;2022-08-16T14:57:40;3.30;;;3.20;;
5931;SDS011;2991;49.368;8.528;2022-08-16T15:00:06;3.58;;;3.40;;
5931;SDS011;2991;49.368;8.528;2022-08-16T15:02:35;3.20;;;3.00;;
5931;SDS011;2991;49.368;8.528;2022-08-16T15:05:02;2.88;;;2.67;;
5931;SDS011;2991;49.368;8.528;2022-08-16T15:07:29;3.45;;;3.25;;
5931;SDS011;2991;49.368;8.528;2022-08-16T15:09:55;3.17;;;3.00;;
5931;SDS011;2991;49.368;8.528;2022-08-16T15:12:22;2.90;;;2.70;;
5931;SDS011;2991;49.368;8.528;2022-08-16T15:14:50;2.90;;;2.80;;
5931;SDS011;2991;49.368;8.528;2022-08-16T15:17:21;3.10;;;2.90;;
5931;SDS011;2991;49.368;8.528;2022-08-16T15:19:49;3.00;;;2.90;;
5931;SDS011;2991;49.368;8.528;2022-08-16T15:22:27;3.35;;;3.15;;
5931;SDS011;2991;49.368;8.528;2022-08-16T15:24:58;3.47;;;3.33;;